Time;durP1;ratioP1;P1;durP2;ratioP2;P2;SDS_P1;SDS_P2;PMS_P1;PMS_P2;Temp;Humidity;BMP_temperature;BMP_pressure;BME280_temperature;BME280_humidity;BME280_pressure;Samples;Min_cycle;Max_cycle;Signal;HPM_P1;HPM_P2
2023/02/04 00:00:12;;;;;;;5.97;4.35;;;;;;;;;;5115429;28;20084;-75
2023/02/04 00:02:57;;;;;;;7.97;5.03;;;;;;;;;;5115248;28;20433;-74
2023/02/04 00:05:43;;;;;;;6.90;4.97;;;;;;;;;;5116803;28;20024;-74
2023/02/04 00:08:28;;;;;;;9.13;5.20;;;;;;;;;;5116131;28;20069;-74
2023/02/04 00:11:14;;;;;;;8.45;5.53;;;;;;;;;;5118974;28;20027;-73
2023/02/04 00:13:59;;;;;;;7.78;5.20;;;;;;;;;;5115282;28;20070;-75
2023/02/04 00:16:45;;;;;;;9.13;5.68;;;;;;;;;;5100752;28;20042;-74
2023/02/04 00:19:31;;;;;;;8.30;5.47;;;;;;;;;;5100810;28;20024;-74
2023/02/04 00:22:16;;;;;;;9.10;5.70;;;;;;;;;;5114810;28;20058;-75
2023/02/04 00:25:02;;;;;;;8.18;5.80;;;;;;;;;;5114999;28;20066;-75
2023/02/04 00:27:47;;;;;;;10.30;5.82;;;;;;;;;;5114745;28;20085;-75
2023/02/04 00:30:33;;;;;;;9.77;5.88;;;;;;;;;;5110102;28;20035;-73
2023/02/04 00:33:19;;;;;;;8.73;5.80;;;;;;;;;;5108829;28;20052;-73
2023/02/04 00:36:04;;;;;;;8.73;5.85;;;;;;;;;;5133521;28;20016;-74
2023/02/04 00:38:50;;;;;;;10.63;5.88;;;;;;;;;;5103803;28;20444;-73
2023/02/04 00:41:36;;;;;;;8.25;6.22;;;;;;;;;;5115330;28;20016;-74
2023/02/04 00:44:21;;;;;;;10.98;6.70;;;;;;;;;;5130532;28;20095;-75
2023/02/04 00:47:07;;;;;;;10.82;6.57;;;;;;;;;;5115601;28;20026;-73
2023/02/04 00:49:52;;;;;;;12.32;7.28;;;;;;;;;;5123475;28;20054;-72
2023/02/04 00:52:38;;;;;;;13.13;7.07;;;;;;;;;;5135227;28;20049;-73
2023/02/04 00:55:23;;;;;;;12.65;7.75;;;;;;;;;;5100835;28;20011;-75
2023/02/04 00:58:09;;;;;;;10.88;7.00;;;;;;;;;;5115028;28;20428;-74
2023/02/04 01:00:54;;;;;;;11.43;7.55;;;;;;;;;;5114379;28;20027;-73
2023/02/04 01:03:40;;;;;;;11.98;7.38;;;;;;;;;;5114916;28;20098;-75
2023/02/04 01:06:26;;;;;;;11.90;7.70;;;;;;;;;;5114425;28;20016;-74
2023/02/04 01:09:11;;;;;;;12.95;7.93;;;;;;;;;;5099981;28;20016;-73
2023/02/04 01:11:57;;;;;;;12.90;7.50;;;;;;;;;;5114684;28;20024;-73
2023/02/04 01:14:42;;;;;;;12.52;7.47;;;;;;;;;;5100060;28;20028;-74
2023/02/04 01:17:28;;;;;;;14.70;8.25;;;;;;;;;;5114030;28;20031;-75
2023/02/04 01:20:14;;;;;;;14.07;8.05;;;;;;;;;;5114590;28;20019;-74
2023/02/04 01:22:59;;;;;;;10.73;6.80;;;;;;;;;;5113386;28;20062;-74
2023/02/04 01:25:45;;;;;;;13.13;7.35;;;;;;;;;;5100010;28;20016;-74
2023/02/04 01:28:30;;;;;;;10.38;7.50;;;;;;;;;;5099843;28;20117;-75
2023/02/04 01:31:16;;;;;;;10.02;6.72;;;;;;;;;;5099431;28;20423;-74
2023/02/04 01:34:02;;;;;;;9.13;6.00;;;;;;;;;;5115219;28;20034;-74
2023/02/04 01:36:47;;;;;;;9.70;6.22;;;;;;;;;;5117262;28;20047;-74
2023/02/04 01:39:33;;;;;;;9.07;5.90;;;;;;;;;;5098749;28;20019;-76
2023/02/04 01:42:19;;;;;;;8.38;5.57;;;;;;;;;;5124298;28;20016;-73
2023/02/04 01:45:07;;;;;;;7.55;5.88;;;;;;;;;;5117122;28;20011;-72
2023/02/04 01:47:53;;;;;;;6.35;5.07;;;;;;;;;;5118276;28;20356;-73
2023/02/04 01:50:39;;;;;;;8.43;5.57;;;;;;;;;;5119017;28;20085;-73
2023/02/04 01:53:25;;;;;;;7.68;5.40;;;;;;;;;;5118127;28;20028;-74
2023/02/04 01:56:18;;;;;;;6.65;4.90;;;;;;;;;;5118413;28;20024;-74
2023/02/04 01:59:10;;;;;;;7.00;4.78;;;;;;;;;;5117558;28;20501;-74
2023/02/04 02:01:55;;;;;;;7.53;5.20;;;;;;;;;;5102499;28;20162;-74
2023/02/04 02:04:41;;;;;;;6.50;4.55;;;;;;;;;;5118702;28;20016;-73
2023/02/04 02:07:26;;;;;;;7.15;4.45;;;;;;;;;;5102664;28;20357;-73
2023/02/04 02:10:13;;;;;;;7.78;4.60;;;;;;;;;;5117923;28;20023;-74
2023/02/04 02:12:58;;;;;;;7.35;4.30;;;;;;;;;;5116975;28;20086;-74
2023/02/04 02:15:44;;;;;;;5.40;3.97;;;;;;;;;;5108466;28;20028;-73
2023/02/04 02:18:30;;;;;;;5.95;4.28;;;;;;;;;;5122533;28;20028;-74
2023/02/04 02:21:18;;;;;;;5.82;3.58;;;;;;;;;;5121051;28;20030;-74
2023/02/04 02:24:22;;;;;;;5.63;3.60;;;;;;;;;;5118219;28;20454;-74
2023/02/04 02:27:09;;;;;;;4.05;3.25;;;;;;;;;;5102184;28;20038;-73
2023/02/04 02:29:55;;;;;;;4.95;3.45;;;;;;;;;;5102912;28;20020;-73
2023/02/04 02:32:40;;;;;;;6.10;4.10;;;;;;;;;;5117090;28;20118;-73
2023/02/04 02:35:26;;;;;;;7.13;3.80;;;;;;;;;;5117170;28;20034;-73
2023/02/04 02:38:11;;;;;;;5.82;3.75;;;;;;;;;;5117420;28;20337;-72
2023/02/04 02:40:57;;;;;;;6.28;3.95;;;;;;;;;;5102280;28;20016;-73
2023/02/04 02:43:43;;;;;;;5.13;3.63;;;;;;;;;;5117712;28;20125;-73
2023/02/04 02:46:28;;;;;;;5.18;3.75;;;;;;;;;;5102177;28;20035;-73
2023/02/04 02:49:15;;;;;;;5.82;3.72;;;;;;;;;;5102058;28;20039;-74
2023/02/04 02:52:01;;;;;;;4.57;3.40;;;;;;;;;;5117135;28;20058;-74
2023/02/04 02:54:46;;;;;;;5.22;3.70;;;;;;;;;;5116530;28;20015;-74
2023/02/04 02:57:32;;;;;;;5.93;4.07;;;;;;;;;;5117232;28;20035;-74
2023/02/04 03:00:19;;;;;;;5.40;4.00;;;;;;;;;;5116594;28;20463;-74
2023/02/04 03:03:08;;;;;;;5.97;4.15;;;;;;;;;;5116393;28;20048;-72
2023/02/04 03:05:56;;;;;;;5.80;3.90;;;;;;;;;;5117229;28;20122;-74
2023/02/04 03:08:42;;;;;;;5.55;3.90;;;;;;;;;;5117239;28;20077;-74
2023/02/04 03:11:28;;;;;;;6.93;4.25;;;;;;;;;;5116610;28;20440;-74
2023/02/04 03:14:14;;;;;;;4.32;3.60;;;;;;;;;;5116448;28;20061;-74
2023/02/04 03:17:01;;;;;;;5.43;3.80;;;;;;;;;;5101073;28;20328;-74
2023/02/04 03:19:47;;;;;;;5.85;4.32;;;;;;;;;;5101098;28;20359;-74
2023/02/04 03:22:33;;;;;;;6.13;4.20;;;;;;;;;;5100878;28;20028;-74
2023/02/04 03:25:19;;;;;;;5.65;4.00;;;;;;;;;;5116696;28;20012;-73
2023/02/04 03:28:05;;;;;;;5.60;4.18;;;;;;;;;;5100927;28;20039;-74
2023/02/04 03:30:54;;;;;;;5.20;4.03;;;;;;;;;;5101645;28;20019;-74
2023/02/04 03:33:41;;;;;;;5.10;3.72;;;;;;;;;;5101497;28;20062;-74
2023/02/04 03:36:26;;;;;;;6.25;4.15;;;;;;;;;;5116217;28;20030;-74
2023/02/04 03:39:12;;;;;;;5.88;3.70;;;;;;;;;;5116205;28;20031;-73
2023/02/04 03:41:58;;;;;;;5.40;3.90;;;;;;;;;;5115678;28;20024;-73
2023/02/04 03:44:43;;;;;;;5.72;4.20;;;;;;;;;;5101748;28;20024;-73
2023/02/04 03:47:29;;;;;;;6.32;4.00;;;;;;;;;;5116311;28;20011;-75
2023/02/04 03:50:15;;;;;;;7.30;3.70;;;;;;;;;;5115955;28;20018;-73
2023/02/04 03:53:00;;;;;;;5.65;3.92;;;;;;;;;;5116027;28;20024;-73
2023/02/04 03:55:46;;;;;;;5.25;3.70;;;;;;;;;;5116195;28;20103;-73
2023/02/04 03:58:31;;;;;;;5.30;3.60;;;;;;;;;;5115925;28;20042;-74
2023/02/04 04:01:17;;;;;;;5.63;3.67;;;;;;;;;;5114996;28;20112;-74
2023/02/04 04:04:02;;;;;;;5.75;4.22;;;;;;;;;;5116596;28;20030;-73
2023/02/04 04:06:48;;;;;;;4.70;3.60;;;;;;;;;;5100482;28;20031;-73
2023/02/04 04:09:34;;;;;;;4.30;3.35;;;;;;;;;;5100555;28;20023;-74
2023/02/04 04:12:19;;;;;;;5.47;4.00;;;;;;;;;;5115002;28;20322;-74
2023/02/04 04:15:05;;;;;;;6.53;3.90;;;;;;;;;;5100682;28;20426;-73
2023/02/04 04:17:50;;;;;;;5.70;3.85;;;;;;;;;;5115521;28;20035;-73
2023/02/04 04:20:36;;;;;;;8.05;4.28;;;;;;;;;;5100177;28;20037;-73
2023/02/04 04:23:22;;;;;;;7.65;4.50;;;;;;;;;;5114855;28;20225;-74
2023/02/04 04:26:07;;;;;;;6.95;3.95;;;;;;;;;;5115418;28;20348;-74
2023/02/04 04:28:53;;;;;;;8.55;4.05;;;;;;;;;;5115225;28;20316;-74
2023/02/04 04:31:38;;;;;;;5.22;4.00;;;;;;;;;;5100100;28;20348;-75
2023/02/04 04:34:24;;;;;;;5.55;4.05;;;;;;;;;;5115294;28;20060;-74
2023/02/04 04:37:09;;;;;;;5.35;3.97;;;;;;;;;;5099940;28;20055;-74
2023/02/04 04:39:55;;;;;;;5.25;4.07;;;;;;;;;;5099892;28;20096;-73
2023/02/04 04:42:41;;;;;;;6.03;4.10;;;;;;;;;;5114746;28;20019;-73
2023/02/04 04:45:26;;;;;;;4.78;3.92;;;;;;;;;;5115224;28;20076;-74
2023/02/04 04:48:12;;;;;;;6.60;3.80;;;;;;;;;;5114651;28;20352;-74
2023/02/04 04:50:57;;;;;;;5.07;3.58;;;;;;;;;;5099783;28;20024;-74
2023/02/04 04:53:43;;;;;;;4.05;3.20;;;;;;;;;;5114876;28;20027;-75
2023/02/04 04:56:29;;;;;;;4.05;2.90;;;;;;;;;;5114378;28;20034;-74
2023/02/04 04:59:14;;;;;;;4.82;3.40;;;;;;;;;;5099419;28;20111;-74
2023/02/04 05:02:00;;;;;;;4.55;3.22;;;;;;;;;;5114183;28;20153;-74
2023/02/04 05:04:45;;;;;;;5.82;3.42;;;;;;;;;;5114363;28;20321;-74
2023/02/04 05:07:31;;;;;;;5.13;3.58;;;;;;;;;;5114571;28;20020;-74
2023/02/04 05:10:16;;;;;;;4.32;3.20;;;;;;;;;;5114533;28;20019;-74
2023/02/04 05:13:02;;;;;;;5.25;3.60;;;;;;;;;;5099747;28;20027;-72
2023/02/04 05:15:48;;;;;;;4.50;3.17;;;;;;;;;;5115167;28;20028;-74
2023/02/04 05:18:33;;;;;;;5.53;3.22;;;;;;;;;;5117219;28;20452;-73
2023/02/04 05:21:19;;;;;;;4.90;3.40;;;;;;;;;;5103738;28;20023;-73
2023/02/04 05:24:05;;;;;;;3.50;2.78;;;;;;;;;;5103883;28;20034;-71
2023/02/04 05:26:50;;;;;;;5.40;3.25;;;;;;;;;;5118653;28;20027;-74
2023/02/04 05:29:36;;;;;;;4.65;3.38;;;;;;;;;;5118354;28;20452;-75
2023/02/04 05:32:22;;;;;;;4.40;3.08;;;;;;;;;;5103337;28;20071;-74
2023/02/04 05:35:07;;;;;;;4.22;3.10;;;;;;;;;;5103333;28;20031;-73
2023/02/04 05:37:53;;;;;;;5.90;3.15;;;;;;;;;;5118610;28;20024;-74
2023/02/04 05:40:39;;;;;;;5.55;3.25;;;;;;;;;;5103944;28;20070;-74
2023/02/04 05:43:24;;;;;;;4.47;3.30;;;;;;;;;;5118422;28;20020;-74
2023/02/04 05:46:10;;;;;;;4.10;3.00;;;;;;;;;;5118670;28;20047;-74
2023/02/04 05:48:55;;;;;;;6.38;3.17;;;;;;;;;;5118167;28;20016;-75
2023/02/04 05:51:41;;;;;;;5.75;3.60;;;;;;;;;;5103424;28;20020;-74
2023/02/04 05:54:26;;;;;;;5.50;3.20;;;;;;;;;;5118047;28;20091;-74
2023/02/04 05:57:12;;;;;;;5.53;3.63;;;;;;;;;;5102752;28;20031;-73
2023/02/04 05:59:58;;;;;;;6.55;4.18;;;;;;;;;;5118339;28;20020;-74
2023/02/04 06:02:43;;;;;;;6.38;4.28;;;;;;;;;;5117528;28;20044;-73
2023/02/04 06:05:29;;;;;;;4.95;3.58;;;;;;;;;;5102991;28;20027;-73
2023/02/04 06:08:15;;;;;;;3.70;2.90;;;;;;;;;;5117825;28;20352;-74
2023/02/04 06:11:01;;;;;;;7.32;3.42;;;;;;;;;;5102195;28;20031;-74
2023/02/04 06:13:46;;;;;;;6.03;2.92;;;;;;;;;;5117843;28;20027;-74
2023/02/04 06:16:32;;;;;;;4.43;3.20;;;;;;;;;;5103962;28;20077;-74
2023/02/04 06:19:18;;;;;;;5.88;3.55;;;;;;;;;;5117537;28;20503;-74
2023/02/04 06:22:03;;;;;;;6.20;3.70;;;;;;;;;;5117286;28;20031;-74
2023/02/04 06:24:49;;;;;;;5.88;3.30;;;;;;;;;;5102719;28;20436;-75
2023/02/04 06:27:35;;;;;;;4.78;3.17;;;;;;;;;;5102268;28;20020;-73
2023/02/04 06:30:20;;;;;;;4.47;3.50;;;;;;;;;;5116710;28;20019;-73
2023/02/04 06:33:06;;;;;;;6.07;3.72;;;;;;;;;;5102571;28;20099;-73
2023/02/04 06:35:51;;;;;;;5.50;3.92;;;;;;;;;;5116293;28;20099;-73
2023/02/04 06:38:37;;;;;;;5.85;3.90;;;;;;;;;;5102168;28;20103;-74
2023/02/04 06:41:23;;;;;;;5.68;3.45;;;;;;;;;;5116945;28;20023;-75
2023/02/04 06:44:08;;;;;;;6.35;4.20;;;;;;;;;;5102232;28;20012;-74
2023/02/04 06:46:54;;;;;;;6.25;3.92;;;;;;;;;;5117117;28;20024;-73
2023/02/04 06:49:39;;;;;;;6.07;4.13;;;;;;;;;;5116892;28;20068;-73
2023/02/04 06:52:25;;;;;;;5.28;3.80;;;;;;;;;;5116659;28;20024;-74
2023/02/04 06:55:11;;;;;;;5.53;4.22;;;;;;;;;;5116751;28;20441;-74
2023/02/04 06:57:56;;;;;;;6.65;4.25;;;;;;;;;;5116761;28;20505;-73
2023/02/04 07:00:42;;;;;;;5.45;3.88;;;;;;;;;;5116746;28;20035;-74
2023/02/04 07:03:28;;;;;;;5.50;3.95;;;;;;;;;;5117240;28;20114;-74
2023/02/04 07:06:13;;;;;;;5.10;3.53;;;;;;;;;;5118078;28;20019;-73
2023/02/04 07:08:59;;;;;;;5.75;4.28;;;;;;;;;;5128838;28;20015;-73
2023/02/04 07:11:44;;;;;;;5.25;4.07;;;;;;;;;;5102003;28;20359;-74
2023/02/04 07:14:30;;;;;;;6.47;3.80;;;;;;;;;;5117030;28;20047;-73
2023/02/04 07:17:15;;;;;;;6.22;4.40;;;;;;;;;;5117211;28;20027;-74
2023/02/04 07:20:01;;;;;;;5.57;4.18;;;;;;;;;;5102617;28;20087;-75
2023/02/04 07:22:47;;;;;;;5.10;4.22;;;;;;;;;;5116310;28;20109;-74
2023/02/04 07:25:32;;;;;;;5.63;4.25;;;;;;;;;;5116602;28;20030;-72
2023/02/04 07:28:18;;;;;;;7.32;4.53;;;;;;;;;;5126224;28;20015;-73
2023/02/04 07:31:04;;;;;;;5.57;3.78;;;;;;;;;;5120731;28;20015;-73
2023/02/04 07:33:50;;;;;;;6.05;4.20;;;;;;;;;;5116703;28;20024;-74
2023/02/04 07:36:35;;;;;;;4.20;3.50;;;;;;;;;;5115698;28;20023;-74
2023/02/04 07:39:21;;;;;;;5.53;3.95;;;;;;;;;;5116448;28;20027;-74
2023/02/04 07:42:06;;;;;;;5.75;4.03;;;;;;;;;;5114709;28;20446;-74
2023/02/04 07:44:52;;;;;;;4.80;3.60;;;;;;;;;;5116246;28;20019;-74
2023/02/04 07:47:37;;;;;;;6.45;4.00;;;;;;;;;;5116260;28;20015;-73
2023/02/04 07:50:23;;;;;;;5.93;4.05;;;;;;;;;;5116086;28;20095;-74
2023/02/04 07:53:09;;;;;;;5.13;4.05;;;;;;;;;;5116121;28;20023;-74
2023/02/04 07:55:55;;;;;;;5.13;3.78;;;;;;;;;;5100885;28;20015;-73
2023/02/04 07:58:40;;;;;;;5.68;4.25;;;;;;;;;;5115855;28;20034;-74
2023/02/04 08:01:26;;;;;;;6.32;3.83;;;;;;;;;;5115377;28;20043;-75
2023/02/04 08:04:11;;;;;;;8.10;4.25;;;;;;;;;;5115649;28;20024;-74
2023/02/04 08:06:57;;;;;;;4.70;3.88;;;;;;;;;;5115921;28;20066;-74
2023/02/04 08:09:43;;;;;;;5.55;4.10;;;;;;;;;;5115640;28;20023;-73
2023/02/04 08:12:29;;;;;;;7.85;4.35;;;;;;;;;;5115911;28;20027;-74
2023/02/04 08:15:14;;;;;;;5.90;4.38;;;;;;;;;;5115328;28;20027;-74
2023/02/04 08:18:00;;;;;;;6.15;4.47;;;;;;;;;;5115271;28;20043;-74
2023/02/04 08:20:46;;;;;;;6.13;4.38;;;;;;;;;;5116190;28;20102;-74
2023/02/04 08:23:32;;;;;;;7.78;4.53;;;;;;;;;;5100525;28;20020;-75
2023/02/04 08:26:17;;;;;;;7.28;4.47;;;;;;;;;;5116131;28;20019;-74
2023/02/04 08:29:03;;;;;;;8.13;4.97;;;;;;;;;;5115454;28;20402;-74
2023/02/04 08:31:49;;;;;;;8.90;4.55;;;;;;;;;;5119363;28;20016;-74
2023/02/04 08:34:35;;;;;;;6.75;4.30;;;;;;;;;;5122807;28;20034;-73
2023/02/04 08:37:20;;;;;;;6.13;4.35;;;;;;;;;;5116086;28;20466;-73
2023/02/04 08:40:06;;;;;;;9.23;4.90;;;;;;;;;;5116084;28;20038;-74
2023/02/04 08:42:51;;;;;;;8.15;4.70;;;;;;;;;;5114086;28;20038;-74
2023/02/04 08:45:37;;;;;;;7.88;5.00;;;;;;;;;;5114893;28;20020;-74
2023/02/04 08:48:23;;;;;;;8.77;5.15;;;;;;;;;;5100130;28;20019;-73
2023/02/04 08:51:08;;;;;;;8.45;5.50;;;;;;;;;;5115954;28;20076;-74
2023/02/04 08:53:54;;;;;;;8.70;5.07;;;;;;;;;;5100182;28;20023;-74
2023/02/04 08:56:40;;;;;;;7.28;5.53;;;;;;;;;;5100660;28;20432;-74
2023/02/04 08:59:25;;;;;;;7.00;5.07;;;;;;;;;;5114919;28;20039;-73
2023/02/04 09:02:11;;;;;;;7.38;5.63;;;;;;;;;;5113468;28;20532;-73
2023/02/04 09:04:57;;;;;;;7.70;5.03;;;;;;;;;;5099960;28;20488;-74
2023/02/04 09:07:43;;;;;;;7.93;5.38;;;;;;;;;;5114777;28;20110;-75
2023/02/04 09:10:29;;;;;;;7.05;5.20;;;;;;;;;;5114913;28;20019;-74
2023/02/04 09:13:14;;;;;;;8.10;6.20;;;;;;;;;;5114907;28;20111;-74
2023/02/04 09:16:02;;;;;;;9.93;7.00;;;;;;;;;;5116685;28;20035;-73
2023/02/04 09:18:48;;;;;;;12.15;6.93;;;;;;;;;;5114908;28;20024;-73
2023/02/04 09:21:33;;;;;;;12.98;8.50;;;;;;;;;;5114418;28;20077;-74
2023/02/04 09:24:22;;;;;;;12.15;7.93;;;;;;;;;;5114179;28;20099;-74
2023/02/04 09:27:08;;;;;;;12.57;8.30;;;;;;;;;;5115052;28;20016;-73
2023/02/04 09:29:53;;;;;;;14.27;9.80;;;;;;;;;;5114546;28;20016;-73
2023/02/04 09:32:39;;;;;;;14.68;9.07;;;;;;;;;;5113896;28;20075;-74
2023/02/04 09:35:24;;;;;;;13.48;8.65;;;;;;;;;;5100754;28;20023;-74
2023/02/04 09:38:10;;;;;;;12.02;8.57;;;;;;;;;;5114986;28;20348;-73
2023/02/04 09:40:58;;;;;;;11.55;8.48;;;;;;;;;;5114174;28;20058;-73
2023/02/04 09:43:45;;;;;;;11.40;7.47;;;;;;;;;;5098700;28;20024;-73
2023/02/04 09:46:30;;;;;;;13.23;8.45;;;;;;;;;;5114128;28;20173;-74
2023/02/04 09:49:16;;;;;;;11.27;7.82;;;;;;;;;;5100245;28;20023;-73
2023/02/04 09:52:08;;;;;;;11.18;7.60;;;;;;;;;;5113655;28;20043;-73
2023/02/04 09:54:54;;;;;;;11.98;8.00;;;;;;;;;;5099867;28;20028;-73
2023/02/04 09:57:40;;;;;;;12.27;8.38;;;;;;;;;;5099843;28;20115;-75
2023/02/04 10:00:28;;;;;;;13.30;8.00;;;;;;;;;;5114130;28;20055;-74
2023/02/04 10:03:15;;;;;;;12.55;8.02;;;;;;;;;;5073789;28;20040;-74
2023/02/04 10:06:01;;;;;;;14.48;8.88;;;;;;;;;;5090249;28;20452;-74
2023/02/04 10:08:47;;;;;;;12.68;8.23;;;;;;;;;;5077825;28;20020;-74
2023/02/04 10:11:35;;;;;;;11.52;7.93;;;;;;;;;;5077844;28;20416;-74
2023/02/04 10:14:21;;;;;;;10.98;7.63;;;;;;;;;;5090985;28;20035;-74
2023/02/04 10:17:07;;;;;;;13.63;8.75;;;;;;;;;;5077759;28;20021;-74
2023/02/04 10:19:53;;;;;;;14.05;8.60;;;;;;;;;;5076740;28;20016;-73
2023/02/04 10:22:39;;;;;;;12.15;8.32;;;;;;;;;;5090456;28;20455;-74
2023/02/04 10:25:25;;;;;;;14.93;9.32;;;;;;;;;;5077879;28;20509;-74
2023/02/04 10:28:10;;;;;;;14.40;9.77;;;;;;;;;;5077845;28;20342;-73
2023/02/04 10:30:56;;;;;;;22.33;10.40;;;;;;;;;;5090213;28;20448;-74
2023/02/04 10:33:41;;;;;;;23.48;11.27;;;;;;;;;;5076785;28;20113;-73
2023/02/04 10:36:27;;;;;;;16.40;10.40;;;;;;;;;;5077028;28;20016;-73
2023/02/04 10:39:24;;;;;;;27.90;14.10;;;;;;;;;;5077598;28;20012;-74
2023/02/04 10:42:40;;;;;;;33.75;16.52;;;;;;;;;;5077465;28;20020;-74
2023/02/04 10:45:27;;;;;;;18.83;10.85;;;;;;;;;;5071951;28;20048;-73
2023/02/04 10:48:17;;;;;;;18.38;10.82;;;;;;;;;;5076696;28;20044;-73
2023/02/04 10:51:02;;;;;;;19.75;10.95;;;;;;;;;;5076305;28;20363;-74
2023/02/04 10:56:52;;;;;;;16.80;10.43;;;;;;;;;;5076289;28;20109;-74
2023/02/04 10:59:38;;;;;;;17.17;9.73;;;;;;;;;;5077173;28;20020;-73
2023/02/04 11:02:44;;;;;;;15.13;10.05;;;;;;;;;;5105906;28;20127;-73
2023/02/04 11:05:30;;;;;;;15.85;9.82;;;;;;;;;;5093972;28;20443;-74
2023/02/04 11:08:21;;;;;;;15.45;9.50;;;;;;;;;;5116960;28;20542;-74
2023/02/04 11:11:11;;;;;;;14.13;9.57;;;;;;;;;;5102871;28;20008;-74
2023/02/04 11:14:02;;;;;;;14.68;9.55;;;;;;;;;;5117827;28;20050;-74
2023/02/04 11:16:48;;;;;;;14.77;9.98;;;;;;;;;;5118014;28;20045;-72
2023/02/04 11:19:44;;;;;;;16.42;9.60;;;;;;;;;;5118525;28;20111;-72
2023/02/04 11:22:44;;;;;;;14.23;8.82;;;;;;;;;;5117520;28;20038;-74
2023/02/04 11:25:33;;;;;;;13.77;9.40;;;;;;;;;;5116865;28;20459;-75
2023/02/04 11:28:25;;;;;;;15.13;9.82;;;;;;;;;;5118744;28;20015;-75
2023/02/04 11:31:20;;;;;;;12.32;8.13;;;;;;;;;;5117935;28;20012;-73
2023/02/04 11:34:09;;;;;;;14.68;8.63;;;;;;;;;;5102911;28;20112;-74
2023/02/04 11:37:01;;;;;;;14.27;8.90;;;;;;;;;;5116861;28;20016;-76
2023/02/04 11:39:48;;;;;;;12.77;8.63;;;;;;;;;;5117021;28;20347;-74
2023/02/04 11:42:41;;;;;;;13.18;8.80;;;;;;;;;;5100081;28;20034;-74
2023/02/04 11:45:28;;;;;;;14.98;9.88;;;;;;;;;;5116187;28;20043;-74
2023/02/04 11:48:17;;;;;;;16.02;10.68;;;;;;;;;;5116247;28;20019;-75
2023/02/04 11:51:09;;;;;;;14.50;9.55;;;;;;;;;;5117219;28;20071;-74
2023/02/04 11:53:54;;;;;;;16.10;11.15;;;;;;;;;;5115577;28;20044;-74
2023/02/04 11:56:40;;;;;;;14.98;10.57;;;;;;;;;;5114977;28;20030;-75
2023/02/04 11:59:26;;;;;;;14.10;9.60;;;;;;;;;;5101340;28;20039;-74
2023/02/04 12:02:17;;;;;;;13.60;9.30;;;;;;;;;;5101182;28;20066;-74
2023/02/04 12:05:10;;;;;;;14.98;9.35;;;;;;;;;;5115610;28;20023;-75
2023/02/04 12:07:56;;;;;;;15.00;9.68;;;;;;;;;;5100653;28;20027;-74
2023/02/04 12:10:46;;;;;;;13.98;9.55;;;;;;;;;;5117308;28;20023;-74
2023/02/04 12:13:32;;;;;;;14.13;9.73;;;;;;;;;;5115791;28;20054;-76
2023/02/04 12:16:19;;;;;;;15.50;10.75;;;;;;;;;;5116075;28;20408;-75
2023/02/04 12:19:05;;;;;;;16.13;10.63;;;;;;;;;;5115111;28;20031;-74
2023/02/04 12:21:50;;;;;;;15.20;10.05;;;;;;;;;;5114537;28;20026;-76
2023/02/04 12:24:36;;;;;;;17.48;9.35;;;;;;;;;;5115662;28;20035;-74
2023/02/04 12:27:21;;;;;;;12.63;8.68;;;;;;;;;;5100921;28;20031;-74
2023/02/04 12:30:08;;;;;;;13.75;8.77;;;;;;;;;;5104133;28;20084;-77
2023/02/04 12:32:53;;;;;;;12.65;8.70;;;;;;;;;;5114833;28;20363;-75
2023/02/04 12:35:39;;;;;;;14.50;9.98;;;;;;;;;;5115299;28;20038;-76
2023/02/04 12:38:26;;;;;;;15.43;9.82;;;;;;;;;;5099366;28;20088;-75
2023/02/04 12:41:12;;;;;;;16.95;9.65;;;;;;;;;;5114649;28;20462;-75
2023/02/04 12:43:57;;;;;;;18.10;9.57;;;;;;;;;;5115205;28;20023;-75
2023/02/04 12:46:43;;;;;;;17.83;10.82;;;;;;;;;;5100689;28;20023;-75
2023/02/04 12:49:29;;;;;;;16.80;10.00;;;;;;;;;;5101346;28;20034;-74
2023/02/04 12:52:14;;;;;;;15.13;9.57;;;;;;;;;;5114149;28;20378;-74
2023/02/04 12:55:00;;;;;;;15.60;9.68;;;;;;;;;;5100092;28;20477;-75
2023/02/04 12:57:45;;;;;;;20.58;11.30;;;;;;;;;;5099845;28;20377;-75
2023/02/04 13:00:31;;;;;;;12.52;7.85;;;;;;;;;;5101141;28;20027;-74
2023/02/04 13:03:16;;;;;;;10.88;7.20;;;;;;;;;;5074634;28;20040;-74
2023/02/04 13:06:02;;;;;;;17.27;9.82;;;;;;;;;;5074757;28;20040;-73
2023/02/04 13:08:48;;;;;;;14.40;8.82;;;;;;;;;;5073706;28;20099;-75
2023/02/04 13:11:33;;;;;;;16.23;8.82;;;;;;;;;;5073857;28;20017;-74
2023/02/04 13:14:19;;;;;;;15.40;8.70;;;;;;;;;;5074486;28;20043;-74
2023/02/04 13:17:05;;;;;;;10.18;6.63;;;;;;;;;;5073905;28;20326;-75
2023/02/04 13:19:50;;;;;;;12.82;7.28;;;;;;;;;;5073730;28;20013;-75
2023/02/04 13:22:36;;;;;;;10.40;6.57;;;;;;;;;;5073548;28;20361;-74
2023/02/04 13:25:21;;;;;;;11.57;6.80;;;;;;;;;;5074676;28;20052;-74
2023/02/04 13:28:07;;;;;;;10.48;6.88;;;;;;;;;;5073505;28;20020;-75
2023/02/04 13:30:52;;;;;;;10.65;6.47;;;;;;;;;;5074050;28;20013;-74
2023/02/04 13:33:38;;;;;;;9.15;6.25;;;;;;;;;;5074187;28;20032;-74
2023/02/04 13:36:26;;;;;;;11.00;6.50;;;;;;;;;;5074038;28;20350;-75
2023/02/04 13:39:12;;;;;;;10.57;6.55;;;;;;;;;;5076220;28;20109;-75
2023/02/04 13:41:57;;;;;;;9.88;6.70;;;;;;;;;;5078081;28;20411;-74
2023/02/04 13:44:43;;;;;;;12.10;6.97;;;;;;;;;;5077827;28;20021;-74
2023/02/04 13:47:28;;;;;;;8.88;5.85;;;;;;;;;;5078621;28;20425;-73
2023/02/04 13:50:15;;;;;;;8.77;5.70;;;;;;;;;;5078571;28;20105;-74
2023/02/04 13:53:00;;;;;;;11.15;6.20;;;;;;;;;;5077455;28;20024;-74
2023/02/04 13:55:46;;;;;;;10.38;6.35;;;;;;;;;;5077857;28;20017;-73
2023/02/04 13:58:32;;;;;;;9.60;5.72;;;;;;;;;;5078126;28;20468;-74
2023/02/04 14:01:17;;;;;;;10.82;6.60;;;;;;;;;;5087560;28;20459;-74
2023/02/04 14:04:03;;;;;;;11.60;6.78;;;;;;;;;;5118375;28;20028;-74
2023/02/04 14:06:49;;;;;;;10.57;7.10;;;;;;;;;;5118385;28;20440;-76
2023/02/04 14:09:34;;;;;;;11.93;7.32;;;;;;;;;;5117776;28;20130;-74
2023/02/04 14:12:20;;;;;;;14.30;8.73;;;;;;;;;;5102886;28;20098;-74
2023/02/04 14:15:05;;;;;;;14.90;9.00;;;;;;;;;;5103540;28;20066;-75
2023/02/04 14:17:51;;;;;;;11.13;7.80;;;;;;;;;;5117706;28;20325;-74
2023/02/04 14:20:37;;;;;;;14.60;8.70;;;;;;;;;;5117951;28;20027;-74
2023/02/04 14:23:22;;;;;;;13.40;8.57;;;;;;;;;;5117977;28;20019;-74
2023/02/04 14:26:08;;;;;;;17.40;10.35;;;;;;;;;;5116233;28;20024;-75
2023/02/04 14:28:54;;;;;;;16.35;10.52;;;;;;;;;;5103490;28;20028;-74
2023/02/04 14:31:39;;;;;;;19.67;11.30;;;;;;;;;;5117095;28;20027;-74
2023/02/04 14:34:25;;;;;;;19.88;11.48;;;;;;;;;;5116309;28;20432;-74
2023/02/04 14:37:10;;;;;;;18.23;10.93;;;;;;;;;;5104574;27;20027;-75
2023/02/04 14:39:56;;;;;;;21.40;12.57;;;;;;;;;;5116528;28;20020;-74
2023/02/04 14:42:42;;;;;;;19.33;12.38;;;;;;;;;;5103284;28;20024;-74
2023/02/04 14:45:27;;;;;;;18.42;11.85;;;;;;;;;;5117924;28;20363;-74
2023/02/04 14:48:13;;;;;;;20.58;12.18;;;;;;;;;;5120564;28;20047;-73
2023/02/04 14:50:59;;;;;;;20.17;13.60;;;;;;;;;;5118267;28;20023;-73
2023/02/04 14:53:45;;;;;;;23.02;12.90;;;;;;;;;;5103925;28;20023;-73
2023/02/04 14:56:34;;;;;;;18.70;11.38;;;;;;;;;;5117428;28;20087;-73
2023/02/04 14:59:19;;;;;;;16.63;9.55;;;;;;;;;;5115986;28;20107;-74
2023/02/04 15:02:05;;;;;;;17.52;10.38;;;;;;;;;;5122791;28;20057;-71
2023/02/04 15:04:50;;;;;;;16.38;10.93;;;;;;;;;;5120352;28;20386;-72
2023/02/04 15:07:36;;;;;;;15.80;10.35;;;;;;;;;;5102060;28;20016;-72
2023/02/04 15:10:23;;;;;;;18.65;11.45;;;;;;;;;;5115700;28;20115;-73
2023/02/04 15:13:09;;;;;;;17.38;11.20;;;;;;;;;;5101762;28;20095;-72
2023/02/04 15:15:54;;;;;;;20.58;12.07;;;;;;;;;;5115666;28;20418;-73
2023/02/04 15:18:40;;;;;;;20.48;11.90;;;;;;;;;;5116035;28;20038;-73
2023/02/04 15:21:26;;;;;;;21.15;12.85;;;;;;;;;;5116432;28;20087;-73
2023/02/04 15:24:11;;;;;;;22.52;13.70;;;;;;;;;;5128160;28;20028;-74
2023/02/04 15:26:57;;;;;;;22.65;13.95;;;;;;;;;;5118973;28;20020;-73
2023/02/04 15:29:42;;;;;;;25.65;14.82;;;;;;;;;;5115822;28;20015;-73
2023/02/04 15:32:28;;;;;;;26.58;16.08;;;;;;;;;;5114586;28;20031;-73
2023/02/04 15:35:14;;;;;;;27.80;15.75;;;;;;;;;;5116728;28;20034;-73
2023/02/04 15:37:59;;;;;;;23.92;15.18;;;;;;;;;;5114775;28;20024;-73
2023/02/04 15:40:45;;;;;;;28.33;16.55;;;;;;;;;;5115400;28;20073;-73
2023/02/04 15:43:30;;;;;;;26.58;15.00;;;;;;;;;;5102281;28;20027;-73
2023/02/04 15:46:16;;;;;;;23.67;15.02;;;;;;;;;;5116247;28;20008;-73
2023/02/04 15:49:02;;;;;;;25.35;15.68;;;;;;;;;;5102358;28;20023;-73
2023/02/04 15:51:48;;;;;;;27.92;17.27;;;;;;;;;;5102779;27;20391;-73
2023/02/04 15:54:33;;;;;;;30.63;17.70;;;;;;;;;;5101797;28;20019;-73
2023/02/04 15:57:19;;;;;;;27.65;16.60;;;;;;;;;;5114495;28;20079;-72
2023/02/04 16:00:05;;;;;;;27.23;16.33;;;;;;;;;;5115176;28;20027;-74
2023/02/04 16:02:50;;;;;;;26.02;16.17;;;;;;;;;;5113281;28;20457;-74
2023/02/04 16:05:36;;;;;;;27.58;16.63;;;;;;;;;;5115348;28;20020;-73
2023/02/04 16:08:22;;;;;;;29.98;17.25;;;;;;;;;;5100533;28;20042;-73
2023/02/04 16:11:07;;;;;;;29.27;17.73;;;;;;;;;;5100508;28;20034;-73
2023/02/04 16:13:53;;;;;;;30.08;18.00;;;;;;;;;;5114468;28;20031;-73
2023/02/04 16:16:38;;;;;;;30.42;17.45;;;;;;;;;;5115208;28;20027;-73
2023/02/04 16:19:24;;;;;;;28.65;17.90;;;;;;;;;;5100869;28;20031;-73
2023/02/04 16:22:09;;;;;;;27.25;16.38;;;;;;;;;;5114020;28;20027;-73
2023/02/04 16:24:55;;;;;;;26.55;15.95;;;;;;;;;;5101481;28;20016;-72
2023/02/04 16:27:41;;;;;;;26.65;16.50;;;;;;;;;;5114477;28;20023;-72